< < Back
Terminal Aerodrome Forecast


Current Version              Previous Versions:   1  2  3  4  5  6  7  8  9  

Terminal Aerodrome Forecast

340
FTUS42 KTAE 152300
TAFDHN
TAF
KDHN 152322Z 1600/1624 36010KT P6SM SKC
     FM160600 01007KT P6SM SKC
     FM161500 07014G20KT P6SM SKC=



Latest METAR

870
SAUS70 KWBC 160400 RRC
MTRDHN
METAR KDHN 160353Z AUTO 33005KT 10SM CLR 07/03 A3016 RMK AO2 SLP213
T00670028


USA.gov is the U.S. government's official web portal to all federal, state and local government web resources and services.